sensor_id;sensor_type;location;lat;lon;timestamp;temperature;humidity
31074;DHT22;17730;53.552;9.940;2023-05-21T00:01:11;12.30;1.00
31074;DHT22;17730;53.552;9.940;2023-05-21T00:03:40;12.20;1.00
31074;DHT22;17730;53.552;9.940;2023-05-21T00:06:06;12.20;30.30
31074;DHT22;17730;53.552;9.940;2023-05-21T00:08:32;12.20;91.50
31074;DHT22;17730;53.552;9.940;2023-05-21T00:10:58;12.10;98.40
31074;DHT22;17730;53.552;9.940;2023-05-21T00:13:24;12.10;99.90
31074;DHT22;17730;53.552;9.940;2023-05-21T00:15:49;12.10;99.90
31074;DHT22;17730;53.552;9.940;2023-05-21T00:18:15;12.00;99.90
31074;DHT22;17730;53.552;9.940;2023-05-21T00:20:40;12.00;99.90
31074;DHT22;17730;53.552;9.940;2023-05-21T00:23:06;12.00;99.90
31074;DHT22;17730;53.552;9.940;2023-05-21T00:25:32;12.00;99.90
31074;DHT22;17730;53.552;9.940;2023-05-21T00:27:57;11.90;99.90
31074;DHT22;17730;53.552;9.940;2023-05-21T00:30:23;12.00;99.90
31074;DHT22;17730;53.552;9.940;2023-05-21T00:32:48;12.00;99.90
31074;DHT22;17730;53.552;9.940;2023-05-21T00:35:15;12.00;99.90
31074;DHT22;17730;53.552;9.940;2023-05-21T00:37:40;12.00;99.90
31074;DHT22;17730;53.552;9.940;2023-05-21T00:40:06;12.00;99.90
31074;DHT22;17730;53.552;9.940;2023-05-21T00:42:33;12.00;99.90
31074;DHT22;17730;53.552;9.940;2023-05-21T00:45:04;12.00;99.90
31074;DHT22;17730;53.552;9.940;2023-05-21T00:47:29;12.00;99.90
31074;DHT22;17730;53.552;9.940;2023-05-21T00:49:55;12.00;99.90
31074;DHT22;17730;53.552;9.940;2023-05-21T00:52:20;12.00;99.90
31074;DHT22;17730;53.552;9.940;2023-05-21T00:54:48;12.00;99.90
31074;DHT22;17730;53.552;9.940;2023-05-21T00:57:15;12.00;99.90
31074;DHT22;17730;53.552;9.940;2023-05-21T00:59:41;12.00;99.90
31074;DHT22;17730;53.552;9.940;2023-05-21T01:02:07;12.00;99.90
31074;DHT22;17730;53.552;9.940;2023-05-21T01:04:33;12.00;99.90
31074;DHT22;17730;53.552;9.940;2023-05-21T01:06:59;11.90;99.90
31074;DHT22;17730;53.552;9.940;2023-05-21T01:09:26;11.90;99.90
31074;DHT22;17730;53.552;9.940;2023-05-21T01:11:52;11.90;99.90
31074;DHT22;17730;53.552;9.940;2023-05-21T01:14:18;11.90;99.90
31074;DHT22;17730;53.552;9.940;2023-05-21T01:16:45;11.80;99.90
31074;DHT22;17730;53.552;9.940;2023-05-21T01:19:16;11.90;99.90
31074;DHT22;17730;53.552;9.940;2023-05-21T01:21:43;11.90;99.90
31074;DHT22;17730;53.552;9.940;2023-05-21T01:24:09;11.90;99.90
31074;DHT22;17730;53.552;9.940;2023-05-21T01:26:35;11.90;99.90
31074;DHT22;17730;53.552;9.940;2023-05-21T01:29:03;11.90;99.90
31074;DHT22;17730;53.552;9.940;2023-05-21T01:31:31;11.90;99.90
31074;DHT22;17730;53.552;9.940;2023-05-21T01:33:58;11.90;99.90
31074;DHT22;17730;53.552;9.940;2023-05-21T01:36:27;11.80;99.90
31074;DHT22;17730;53.552;9.940;2023-05-21T01:39:00;11.80;99.90
31074;DHT22;17730;53.552;9.940;2023-05-21T01:41:28;11.80;99.90
31074;DHT22;17730;53.552;9.940;2023-05-21T01:43:56;11.80;99.90
31074;DHT22;17730;53.552;9.940;2023-05-21T01:46:22;11.80;99.90
31074;DHT22;17730;53.552;9.940;2023-05-21T01:48:49;11.80;99.90
31074;DHT22;17730;53.552;9.940;2023-05-21T01:51:16;11.80;99.90
31074;DHT22;17730;53.552;9.940;2023-05-21T01:53:41;11.70;99.90
31074;DHT22;17730;53.552;9.940;2023-05-21T01:56:07;11.70;99.90
31074;DHT22;17730;53.552;9.940;2023-05-21T01:58:32;11.60;99.90
31074;DHT22;17730;53.552;9.940;2023-05-21T02:00:58;11.60;99.90
31074;DHT22;17730;53.552;9.940;2023-05-21T02:03:24;11.60;99.90
31074;DHT22;17730;53.552;9.940;2023-05-21T02:05:50;11.60;99.90
31074;DHT22;17730;53.552;9.940;2023-05-21T02:08:16;11.60;99.90
31074;DHT22;17730;53.552;9.940;2023-05-21T02:10:44;11.60;99.90
31074;DHT22;17730;53.552;9.940;2023-05-21T02:13:09;11.60;99.90
31074;DHT22;17730;53.552;9.940;2023-05-21T02:15:35;11.60;99.90
31074;DHT22;17730;53.552;9.940;2023-05-21T02:18:00;11.60;99.90
31074;DHT22;17730;53.552;9.940;2023-05-21T02:20:26;11.50;99.90
31074;DHT22;17730;53.552;9.940;2023-05-21T02:22:52;11.60;99.90
31074;DHT22;17730;53.552;9.940;2023-05-21T02:25:17;11.50;99.90
31074;DHT22;17730;53.552;9.940;2023-05-21T02:27:43;11.60;99.90
31074;DHT22;17730;53.552;9.940;2023-05-21T02:30:11;11.60;99.90
31074;DHT22;17730;53.552;9.940;2023-05-21T02:32:37;11.60;99.90
31074;DHT22;17730;53.552;9.940;2023-05-21T02:35:06;11.60;99.90
31074;DHT22;17730;53.552;9.940;2023-05-21T02:37:34;11.50;99.90
31074;DHT22;17730;53.552;9.940;2023-05-21T02:40:00;11.50;99.90
31074;DHT22;17730;53.552;9.940;2023-05-21T02:42:26;11.50;99.90
31074;DHT22;17730;53.552;9.940;2023-05-21T02:44:51;11.50;99.90
31074;DHT22;17730;53.552;9.940;2023-05-21T02:47:18;11.50;99.90
31074;DHT22;17730;53.552;9.940;2023-05-21T02:49:44;11.40;99.90
31074;DHT22;17730;53.552;9.940;2023-05-21T02:52:09;11.40;99.90
31074;DHT22;17730;53.552;9.940;2023-05-21T02:54:35;11.40;1.00
31074;DHT22;17730;53.552;9.940;2023-05-21T02:57:00;11.40;1.00
31074;DHT22;17730;53.552;9.940;2023-05-21T02:59:26;11.40;1.00
31074;DHT22;17730;53.552;9.940;2023-05-21T03:01:51;11.40;1.00
31074;DHT22;17730;53.552;9.940;2023-05-21T03:04:17;11.40;1.00
31074;DHT22;17730;53.552;9.940;2023-05-21T03:06:42;11.50;1.00
31074;DHT22;17730;53.552;9.940;2023-05-21T03:09:09;11.50;1.00
31074;DHT22;17730;53.552;9.940;2023-05-21T03:11:35;11.50;1.00
31074;DHT22;17730;53.552;9.940;2023-05-21T03:14:00;11.50;1.00
31074;DHT22;17730;53.552;9.940;2023-05-21T03:16:26;11.50;1.00
31074;DHT22;17730;53.552;9.940;2023-05-21T03:18:52;11.50;1.00
31074;DHT22;17730;53.552;9.940;2023-05-21T03:21:18;11.50;1.00
31074;DHT22;17730;53.552;9.940;2023-05-21T03:23:47;11.50;1.00
31074;DHT22;17730;53.552;9.940;2023-05-21T03:26:12;11.50;1.00
31074;DHT22;17730;53.552;9.940;2023-05-21T03:28:38;11.50;1.00
31074;DHT22;17730;53.552;9.940;2023-05-21T03:31:03;11.50;1.00
31074;DHT22;17730;53.552;9.940;2023-05-21T03:33:29;11.50;1.00
31074;DHT22;17730;53.552;9.940;2023-05-21T03:35:55;11.50;1.00
31074;DHT22;17730;53.552;9.940;2023-05-21T03:38:20;11.60;1.00
31074;DHT22;17730;53.552;9.940;2023-05-21T03:40:46;11.70;1.00
31074;DHT22;17730;53.552;9.940;2023-05-21T03:43:11;11.70;1.00
31074;DHT22;17730;53.552;9.940;2023-05-21T03:45:37;11.70;1.00
31074;DHT22;17730;53.552;9.940;2023-05-21T03:48:02;11.80;1.00
31074;DHT22;17730;53.552;9.940;2023-05-21T03:50:28;11.80;1.00
31074;DHT22;17730;53.552;9.940;2023-05-21T03:52:53;11.80;1.00
31074;DHT22;17730;53.552;9.940;2023-05-21T03:55:19;11.80;1.00
31074;DHT22;17730;53.552;9.940;2023-05-21T03:57:44;11.90;1.00
31074;DHT22;17730;53.552;9.940;2023-05-21T04:00:10;11.90;1.00
31074;DHT22;17730;53.552;9.940;2023-05-21T04:02:35;12.10;1.00
31074;DHT22;17730;53.552;9.940;2023-05-21T04:05:01;12.20;1.00
31074;DHT22;17730;53.552;9.940;2023-05-21T04:07:27;12.40;99.90
31074;DHT22;17730;53.552;9.940;2023-05-21T04:09:54;12.40;99.90
31074;DHT22;17730;53.552;9.940;2023-05-21T04:12:20;12.50;99.90
31074;DHT22;17730;53.552;9.940;2023-05-21T04:14:45;12.50;99.90
31074;DHT22;17730;53.552;9.940;2023-05-21T04:17:11;12.50;99.90
31074;DHT22;17730;53.552;9.940;2023-05-21T04:19:39;12.40;99.90
31074;DHT22;17730;53.552;9.940;2023-05-21T04:22:05;12.50;99.90
31074;DHT22;17730;53.552;9.940;2023-05-21T04:24:30;12.60;99.90
31074;DHT22;17730;53.552;9.940;2023-05-21T04:26:56;12.60;99.90
31074;DHT22;17730;53.552;9.940;2023-05-21T04:29:28;12.60;99.90
31074;DHT22;17730;53.552;9.940;2023-05-21T04:31:54;12.60;99.90
31074;DHT22;17730;53.552;9.940;2023-05-21T04:34:19;12.60;99.90
31074;DHT22;17730;53.552;9.940;2023-05-21T04:36:45;12.60;99.90
31074;DHT22;17730;53.552;9.940;2023-05-21T04:39:11;12.60;99.90
31074;DHT22;17730;53.552;9.940;2023-05-21T04:41:37;12.60;99.90
31074;DHT22;17730;53.552;9.940;2023-05-21T04:44:04;12.90;99.90
31074;DHT22;17730;53.552;9.940;2023-05-21T04:46:29;13.10;99.90
31074;DHT22;17730;53.552;9.940;2023-05-21T04:48:55;13.30;99.90
31074;DHT22;17730;53.552;9.940;2023-05-21T04:51:22;13.40;99.90
31074;DHT22;17730;53.552;9.940;2023-05-21T04:53:49;13.50;99.90
31074;DHT22;17730;53.552;9.940;2023-05-21T04:56:17;13.60;99.90
31074;DHT22;17730;53.552;9.940;2023-05-21T04:58:43;13.50;99.90
31074;DHT22;17730;53.552;9.940;2023-05-21T05:01:09;13.60;99.90
31074;DHT22;17730;53.552;9.940;2023-05-21T05:03:34;13.70;91.10
31074;DHT22;17730;53.552;9.940;2023-05-21T05:06:00;13.60;78.90
31074;DHT22;17730;53.552;9.940;2023-05-21T05:08:28;13.60;99.90
31074;DHT22;17730;53.552;9.940;2023-05-21T05:10:54;13.60;99.90
31074;DHT22;17730;53.552;9.940;2023-05-21T05:13:19;13.60;99.90
31074;DHT22;17730;53.552;9.940;2023-05-21T05:15:45;13.80;93.90
31074;DHT22;17730;53.552;9.940;2023-05-21T05:18:11;13.90;30.00
31074;DHT22;17730;53.552;9.940;2023-05-21T05:20:36;14.00;1.00
31074;DHT22;17730;53.552;9.940;2023-05-21T05:23:02;14.00;1.00
31074;DHT22;17730;53.552;9.940;2023-05-21T05:25:27;14.00;23.60
31074;DHT22;17730;53.552;9.940;2023-05-21T05:27:53;14.10;1.00
31074;DHT22;17730;53.552;9.940;2023-05-21T05:30:19;14.20;99.90
31074;DHT22;17730;53.552;9.940;2023-05-21T05:32:44;14.20;1.00
31074;DHT22;17730;53.552;9.940;2023-05-21T05:35:10;14.20;1.00
31074;DHT22;17730;53.552;9.940;2023-05-21T05:37:36;14.10;1.00
31074;DHT22;17730;53.552;9.940;2023-05-21T05:40:02;14.20;9.80
31074;DHT22;17730;53.552;9.940;2023-05-21T05:42:28;14.20;1.00
31074;DHT22;17730;53.552;9.940;2023-05-21T05:44:54;14.30;1.00
31074;DHT22;17730;53.552;9.940;2023-05-21T05:47:20;14.40;99.90
31074;DHT22;17730;53.552;9.940;2023-05-21T05:49:46;14.50;99.90
31074;DHT22;17730;53.552;9.940;2023-05-21T05:52:11;14.70;99.90
31074;DHT22;17730;53.552;9.940;2023-05-21T05:54:37;14.80;99.90
31074;DHT22;17730;53.552;9.940;2023-05-21T05:57:02;14.80;22.60
31074;DHT22;17730;53.552;9.940;2023-05-21T05:59:27;14.90;90.20
31074;DHT22;17730;53.552;9.940;2023-05-21T06:01:53;15.00;1.00
31074;DHT22;17730;53.552;9.940;2023-05-21T06:04:18;14.90;99.90
31074;DHT22;17730;53.552;9.940;2023-05-21T06:06:44;14.80;99.90
31074;DHT22;17730;53.552;9.940;2023-05-21T06:09:10;14.80;99.90
31074;DHT22;17730;53.552;9.940;2023-05-21T06:11:36;14.90;99.90
31074;DHT22;17730;53.552;9.940;2023-05-21T06:14:01;15.00;81.90
31074;DHT22;17730;53.552;9.940;2023-05-21T06:16:27;15.20;99.90
31074;DHT22;17730;53.552;9.940;2023-05-21T06:18:52;15.40;99.90
31074;DHT22;17730;53.552;9.940;2023-05-21T06:21:18;15.50;99.90
31074;DHT22;17730;53.552;9.940;2023-05-21T06:23:43;15.60;36.60
31074;DHT22;17730;53.552;9.940;2023-05-21T06:26:09;15.60;70.20
31074;DHT22;17730;53.552;9.940;2023-05-21T06:28:34;15.70;99.90
31074;DHT22;17730;53.552;9.940;2023-05-21T06:31:00;15.90;99.90
31074;DHT22;17730;53.552;9.940;2023-05-21T06:33:26;15.80;77.50
31074;DHT22;17730;53.552;9.940;2023-05-21T06:35:51;15.70;99.90
31074;DHT22;17730;53.552;9.940;2023-05-21T06:38:17;15.80;1.00
31074;DHT22;17730;53.552;9.940;2023-05-21T06:40:42;16.00;1.00
31074;DHT22;17730;53.552;9.940;2023-05-21T06:43:11;16.20;99.90
31074;DHT22;17730;53.552;9.940;2023-05-21T06:45:37;16.20;7.40
31074;DHT22;17730;53.552;9.940;2023-05-21T06:48:02;16.20;99.90
31074;DHT22;17730;53.552;9.940;2023-05-21T06:50:28;16.30;99.90
31074;DHT22;17730;53.552;9.940;2023-05-21T06:52:53;16.30;99.90
31074;DHT22;17730;53.552;9.940;2023-05-21T06:55:19;16.30;99.90
31074;DHT22;17730;53.552;9.940;2023-05-21T06:57:44;16.40;99.90
31074;DHT22;17730;53.552;9.940;2023-05-21T07:00:10;16.60;85.80
31074;DHT22;17730;53.552;9.940;2023-05-21T07:02:36;16.70;1.00
31074;DHT22;17730;53.552;9.940;2023-05-21T07:05:01;17.00;46.10
31074;DHT22;17730;53.552;9.940;2023-05-21T07:07:27;17.20;99.90
31074;DHT22;17730;53.552;9.940;2023-05-21T07:09:52;17.10;99.90
31074;DHT22;17730;53.552;9.940;2023-05-21T07:12:18;17.10;99.90
31074;DHT22;17730;53.552;9.940;2023-05-21T07:14:43;17.20;99.90
31074;DHT22;17730;53.552;9.940;2023-05-21T07:17:09;17.30;80.20
31074;DHT22;17730;53.552;9.940;2023-05-21T07:19:34;17.40;1.00
31074;DHT22;17730;53.552;9.940;2023-05-21T07:22:01;17.50;1.00
31074;DHT22;17730;53.552;9.940;2023-05-21T07:24:26;17.40;1.00
31074;DHT22;17730;53.552;9.940;2023-05-21T07:26:52;17.70;99.90
31074;DHT22;17730;53.552;9.940;2023-05-21T07:29:17;17.80;1.00
31074;DHT22;17730;53.552;9.940;2023-05-21T07:31:43;17.80;99.90
31074;DHT22;17730;53.552;9.940;2023-05-21T07:34:08;17.90;99.90
31074;DHT22;17730;53.552;9.940;2023-05-21T07:36:34;17.90;32.50
31074;DHT22;17730;53.552;9.940;2023-05-21T07:38:59;17.90;99.90
31074;DHT22;17730;53.552;9.940;2023-05-21T07:41:25;18.00;43.90
31074;DHT22;17730;53.552;9.940;2023-05-21T07:43:50;18.00;99.90
31074;DHT22;17730;53.552;9.940;2023-05-21T07:46:16;18.20;96.80
31074;DHT22;17730;53.552;9.940;2023-05-21T07:48:41;18.30;99.90
31074;DHT22;17730;53.552;9.940;2023-05-21T07:51:08;18.50;99.90
31074;DHT22;17730;53.552;9.940;2023-05-21T07:53:33;18.70;38.20
31074;DHT22;17730;53.552;9.940;2023-05-21T07:55:59;18.80;24.40
31074;DHT22;17730;53.552;9.940;2023-05-21T07:58:24;19.10;99.90
31074;DHT22;17730;53.552;9.940;2023-05-21T08:00:50;19.10;99.90
31074;DHT22;17730;53.552;9.940;2023-05-21T08:03:16;19.30;99.90
31074;DHT22;17730;53.552;9.940;2023-05-21T08:05:45;19.50;63.30
31074;DHT22;17730;53.552;9.940;2023-05-21T08:08:15;19.40;99.90
31074;DHT22;17730;53.552;9.940;2023-05-21T08:10:40;19.40;99.90
31074;DHT22;17730;53.552;9.940;2023-05-21T08:13:06;19.50;99.90
31074;DHT22;17730;53.552;9.940;2023-05-21T08:15:31;19.60;71.90
31074;DHT22;17730;53.552;9.940;2023-05-21T08:17:57;19.60;87.30
31074;DHT22;17730;53.552;9.940;2023-05-21T08:20:22;19.80;99.90
31074;DHT22;17730;53.552;9.940;2023-05-21T08:22:48;20.20;1.00
31074;DHT22;17730;53.552;9.940;2023-05-21T08:25:14;20.30;99.90
31074;DHT22;17730;53.552;9.940;2023-05-21T08:27:39;20.10;99.90
31074;DHT22;17730;53.552;9.940;2023-05-21T08:30:05;20.10;1.00
31074;DHT22;17730;53.552;9.940;2023-05-21T08:32:31;20.40;99.90
31074;DHT22;17730;53.552;9.940;2023-05-21T08:34:56;20.40;99.90
31074;DHT22;17730;53.552;9.940;2023-05-21T08:37:22;20.50;99.90
31074;DHT22;17730;53.552;9.940;2023-05-21T08:39:47;20.60;99.90
31074;DHT22;17730;53.552;9.940;2023-05-21T08:42:19;20.50;99.90
31074;DHT22;17730;53.552;9.940;2023-05-21T08:44:47;20.60;99.90
31074;DHT22;17730;53.552;9.940;2023-05-21T08:47:15;20.60;99.90
31074;DHT22;17730;53.552;9.940;2023-05-21T08:49:43;20.60;99.90
31074;DHT22;17730;53.552;9.940;2023-05-21T08:52:10;20.70;99.90
31074;DHT22;17730;53.552;9.940;2023-05-21T08:54:35;20.60;99.90
31074;DHT22;17730;53.552;9.940;2023-05-21T08:57:01;20.70;99.90
31074;DHT22;17730;53.552;9.940;2023-05-21T08:59:27;20.80;99.90
31074;DHT22;17730;53.552;9.940;2023-05-21T09:01:53;20.90;99.90
31074;DHT22;17730;53.552;9.940;2023-05-21T09:04:18;21.00;99.90
31074;DHT22;17730;53.552;9.940;2023-05-21T09:06:45;21.20;99.90
31074;DHT22;17730;53.552;9.940;2023-05-21T09:09:18;21.20;99.90
31074;DHT22;17730;53.552;9.940;2023-05-21T09:11:46;20.90;99.90
31074;DHT22;17730;53.552;9.940;2023-05-21T09:14:13;20.90;99.90
31074;DHT22;17730;53.552;9.940;2023-05-21T09:16:39;21.10;99.90
31074;DHT22;17730;53.552;9.940;2023-05-21T09:19:05;20.80;99.90
31074;DHT22;17730;53.552;9.940;2023-05-21T09:21:31;20.70;99.90
31074;DHT22;17730;53.552;9.940;2023-05-21T09:23:57;20.60;1.00
31074;DHT22;17730;53.552;9.940;2023-05-21T09:26:23;20.70;19.30
31074;DHT22;17730;53.552;9.940;2023-05-21T09:28:49;20.90;1.00
31074;DHT22;17730;53.552;9.940;2023-05-21T09:31:15;20.80;99.90
31074;DHT22;17730;53.552;9.940;2023-05-21T09:33:44;20.90;1.00
31074;DHT22;17730;53.552;9.940;2023-05-21T09:36:11;21.10;99.90
31074;DHT22;17730;53.552;9.940;2023-05-21T09:38:36;21.20;99.90
31074;DHT22;17730;53.552;9.940;2023-05-21T09:41:05;21.40;99.90
31074;DHT22;17730;53.552;9.940;2023-05-21T09:43:31;21.30;99.90
31074;DHT22;17730;53.552;9.940;2023-05-21T09:45:56;21.30;99.90
31074;DHT22;17730;53.552;9.940;2023-05-21T09:48:35;21.20;99.90
31074;DHT22;17730;53.552;9.940;2023-05-21T09:51:13;21.20;99.90
31074;DHT22;17730;53.552;9.940;2023-05-21T09:53:52;21.40;99.90
31074;DHT22;17730;53.552;9.940;2023-05-21T09:56:22;21.70;99.90
31074;DHT22;17730;53.552;9.940;2023-05-21T09:58:52;22.30;99.90
31074;DHT22;17730;53.552;9.940;2023-05-21T10:01:19;22.70;29.20
31074;DHT22;17730;53.552;9.940;2023-05-21T10:03:47;22.70;1.00
31074;DHT22;17730;53.552;9.940;2023-05-21T10:06:14;22.70;1.00
31074;DHT22;17730;53.552;9.940;2023-05-21T10:08:41;22.20;72.40
31074;DHT22;17730;53.552;9.940;2023-05-21T10:11:08;22.00;99.90
31074;DHT22;17730;53.552;9.940;2023-05-21T10:13:35;22.20;99.90
31074;DHT22;17730;53.552;9.940;2023-05-21T10:16:03;22.30;99.90
31074;DHT22;17730;53.552;9.940;2023-05-21T10:18:29;22.50;92.70
31074;DHT22;17730;53.552;9.940;2023-05-21T10:20:56;23.00;1.00
31074;DHT22;17730;53.552;9.940;2023-05-21T10:23:22;23.30;1.00
31074;DHT22;17730;53.552;9.940;2023-05-21T10:25:48;23.20;1.00
31074;DHT22;17730;53.552;9.940;2023-05-21T10:28:15;23.00;1.00
31074;DHT22;17730;53.552;9.940;2023-05-21T10:30:42;23.00;1.00
31074;DHT22;17730;53.552;9.940;2023-05-21T10:33:08;23.10;1.00
31074;DHT22;17730;53.552;9.940;2023-05-21T10:35:36;23.10;1.00
31074;DHT22;17730;53.552;9.940;2023-05-21T10:38:02;22.90;1.00
31074;DHT22;17730;53.552;9.940;2023-05-21T10:40:28;23.00;4.40
31074;DHT22;17730;53.552;9.940;2023-05-21T10:43:01;23.00;1.00
31074;DHT22;17730;53.552;9.940;2023-05-21T10:45:39;23.10;1.00
31074;DHT22;17730;53.552;9.940;2023-05-21T10:48:17;23.20;1.00
31074;DHT22;17730;53.552;9.940;2023-05-21T10:53:30;23.10;1.00
31074;DHT22;17730;53.552;9.940;2023-05-21T10:58:57;23.00;30.00
31074;DHT22;17730;53.552;9.940;2023-05-21T11:01:28;23.10;41.70
31074;DHT22;17730;53.552;9.940;2023-05-21T11:03:58;23.20;5.60
31074;DHT22;17730;53.552;9.940;2023-05-21T11:06:24;23.40;4.80
31074;DHT22;17730;53.552;9.940;2023-05-21T11:08:50;23.80;1.00
31074;DHT22;17730;53.552;9.940;2023-05-21T11:14:02;24.00;1.00
31074;DHT22;17730;53.552;9.940;2023-05-21T11:16:47;24.00;1.00
31074;DHT22;17730;53.552;9.940;2023-05-21T11:19:16;23.90;1.00
31074;DHT22;17730;53.552;9.940;2023-05-21T11:21:41;23.90;1.00
31074;DHT22;17730;53.552;9.940;2023-05-21T11:24:07;24.10;1.00
31074;DHT22;17730;53.552;9.940;2023-05-21T11:29:12;24.50;99.90
31074;DHT22;17730;53.552;9.940;2023-05-21T11:31:43;24.50;99.90
31074;DHT22;17730;53.552;9.940;2023-05-21T11:36:38;24.30;99.90
31074;DHT22;17730;53.552;9.940;2023-05-21T11:39:08;24.10;99.90
31074;DHT22;17730;53.552;9.940;2023-05-21T11:44:37;24.10;99.90
31074;DHT22;17730;53.552;9.940;2023-05-21T11:47:04;24.10;99.90
31074;DHT22;17730;53.552;9.940;2023-05-21T11:49:30;24.20;99.90
31074;DHT22;17730;53.552;9.940;2023-05-21T11:51:56;24.40;99.90
31074;DHT22;17730;53.552;9.940;2023-05-21T11:54:22;24.50;99.90
31074;DHT22;17730;53.552;9.940;2023-05-21T11:56:48;24.40;99.90
31074;DHT22;17730;53.552;9.940;2023-05-21T11:59:13;24.30;99.90
31074;DHT22;17730;53.552;9.940;2023-05-21T12:01:43;24.40;99.90
31074;DHT22;17730;53.552;9.940;2023-05-21T12:04:08;24.50;99.90
31074;DHT22;17730;53.552;9.940;2023-05-21T12:06:36;24.30;99.90
31074;DHT22;17730;53.552;9.940;2023-05-21T12:09:02;24.30;99.90
31074;DHT22;17730;53.552;9.940;2023-05-21T12:11:28;24.30;99.90
31074;DHT22;17730;53.552;9.940;2023-05-21T12:13:54;24.20;99.90
31074;DHT22;17730;53.552;9.940;2023-05-21T12:16:20;24.40;1.00
31074;DHT22;17730;53.552;9.940;2023-05-21T12:18:46;24.40;99.90
31074;DHT22;17730;53.552;9.940;2023-05-21T12:21:12;24.30;99.90
31074;DHT22;17730;53.552;9.940;2023-05-21T12:23:37;24.30;1.00
31074;DHT22;17730;53.552;9.940;2023-05-21T12:26:03;24.30;99.90
31074;DHT22;17730;53.552;9.940;2023-05-21T12:28:30;24.30;99.90
31074;DHT22;17730;53.552;9.940;2023-05-21T12:30:56;24.20;1.00
31074;DHT22;17730;53.552;9.940;2023-05-21T12:33:21;24.20;1.00
31074;DHT22;17730;53.552;9.940;2023-05-21T12:35:50;24.50;1.00
31074;DHT22;17730;53.552;9.940;2023-05-21T12:38:16;24.50;1.00
31074;DHT22;17730;53.552;9.940;2023-05-21T12:40:42;24.50;1.00
31074;DHT22;17730;53.552;9.940;2023-05-21T12:43:09;24.40;1.00
31074;DHT22;17730;53.552;9.940;2023-05-21T12:45:35;24.30;1.00
31074;DHT22;17730;53.552;9.940;2023-05-21T12:48:03;24.30;1.00
31074;DHT22;17730;53.552;9.940;2023-05-21T12:50:29;24.30;1.00
31074;DHT22;17730;53.552;9.940;2023-05-21T12:52:54;24.50;1.00
31074;DHT22;17730;53.552;9.940;2023-05-21T12:55:23;24.50;1.00
31074;DHT22;17730;53.552;9.940;2023-05-21T12:57:58;24.60;1.00
31074;DHT22;17730;53.552;9.940;2023-05-21T13:00:23;24.40;1.00
31074;DHT22;17730;53.552;9.940;2023-05-21T13:02:50;24.30;1.00
31074;DHT22;17730;53.552;9.940;2023-05-21T13:05:16;24.30;1.00
31074;DHT22;17730;53.552;9.940;2023-05-21T13:07:41;24.30;1.00
31074;DHT22;17730;53.552;9.940;2023-05-21T13:10:08;24.30;1.00
31074;DHT22;17730;53.552;9.940;2023-05-21T13:12:34;24.30;1.00
31074;DHT22;17730;53.552;9.940;2023-05-21T13:15:00;24.30;9.10
31074;DHT22;17730;53.552;9.940;2023-05-21T13:17:26;24.30;14.10
31074;DHT22;17730;53.552;9.940;2023-05-21T13:20:08;24.30;2.00
31074;DHT22;17730;53.552;9.940;2023-05-21T13:22:35;24.30;18.90
31074;DHT22;17730;53.552;9.940;2023-05-21T13:25:01;24.40;20.40
31074;DHT22;17730;53.552;9.940;2023-05-21T13:27:27;24.50;12.00
31074;DHT22;17730;53.552;9.940;2023-05-21T13:29:52;24.50;15.20
31074;DHT22;17730;53.552;9.940;2023-05-21T13:32:18;24.50;23.30
31074;DHT22;17730;53.552;9.940;2023-05-21T13:34:43;24.50;25.80
31074;DHT22;17730;53.552;9.940;2023-05-21T13:37:09;24.50;19.10
31074;DHT22;17730;53.552;9.940;2023-05-21T13:39:34;24.50;19.90
31074;DHT22;17730;53.552;9.940;2023-05-21T13:42:00;24.50;4.60
31074;DHT22;17730;53.552;9.940;2023-05-21T13:44:25;24.60;1.00
31074;DHT22;17730;53.552;9.940;2023-05-21T13:46:51;24.60;1.00
31074;DHT22;17730;53.552;9.940;2023-05-21T13:49:16;24.30;1.00
31074;DHT22;17730;53.552;9.940;2023-05-21T13:51:42;24.30;22.00
31074;DHT22;17730;53.552;9.940;2023-05-21T13:54:08;24.40;1.00
31074;DHT22;17730;53.552;9.940;2023-05-21T13:56:33;24.30;8.40
31074;DHT22;17730;53.552;9.940;2023-05-21T13:58:59;24.30;17.90
31074;DHT22;17730;53.552;9.940;2023-05-21T14:01:25;24.40;18.20
31074;DHT22;17730;53.552;9.940;2023-05-21T14:03:51;24.60;1.00
31074;DHT22;17730;53.552;9.940;2023-05-21T14:06:16;24.70;1.00
31074;DHT22;17730;53.552;9.940;2023-05-21T14:08:42;24.60;1.00
31074;DHT22;17730;53.552;9.940;2023-05-21T14:11:07;24.60;1.00
31074;DHT22;17730;53.552;9.940;2023-05-21T14:13:33;24.50;1.00
31074;DHT22;17730;53.552;9.940;2023-05-21T14:15:58;24.50;1.00
31074;DHT22;17730;53.552;9.940;2023-05-21T14:18:24;24.60;1.00
31074;DHT22;17730;53.552;9.940;2023-05-21T14:20:49;24.70;1.00
31074;DHT22;17730;53.552;9.940;2023-05-21T14:23:16;24.60;99.90
31074;DHT22;17730;53.552;9.940;2023-05-21T14:25:41;24.90;99.90
31074;DHT22;17730;53.552;9.940;2023-05-21T14:28:07;24.80;99.90
31074;DHT22;17730;53.552;9.940;2023-05-21T14:30:32;24.90;99.90
31074;DHT22;17730;53.552;9.940;2023-05-21T14:32:58;24.70;99.90
31074;DHT22;17730;53.552;9.940;2023-05-21T14:35:23;24.80;99.90
31074;DHT22;17730;53.552;9.940;2023-05-21T14:37:49;24.90;99.90
31074;DHT22;17730;53.552;9.940;2023-05-21T14:40:14;24.90;99.90
31074;DHT22;17730;53.552;9.940;2023-05-21T14:42:39;24.90;99.90
31074;DHT22;17730;53.552;9.940;2023-05-21T14:45:05;24.90;99.90
31074;DHT22;17730;53.552;9.940;2023-05-21T14:47:31;24.70;99.90
31074;DHT22;17730;53.552;9.940;2023-05-21T14:49:56;24.60;99.90
31074;DHT22;17730;53.552;9.940;2023-05-21T14:52:22;24.60;99.90
31074;DHT22;17730;53.552;9.940;2023-05-21T14:54:47;24.70;99.90
31074;DHT22;17730;53.552;9.940;2023-05-21T14:57:13;24.50;99.90
31074;DHT22;17730;53.552;9.940;2023-05-21T14:59:38;24.70;99.90
31074;DHT22;17730;53.552;9.940;2023-05-21T15:02:03;24.60;99.90
31074;DHT22;17730;53.552;9.940;2023-05-21T15:04:29;24.60;99.90
31074;DHT22;17730;53.552;9.940;2023-05-21T15:06:54;24.70;99.90
31074;DHT22;17730;53.552;9.940;2023-05-21T15:09:20;24.70;99.90
31074;DHT22;17730;53.552;9.940;2023-05-21T15:11:45;24.90;99.90
31074;DHT22;17730;53.552;9.940;2023-05-21T15:14:17;25.00;99.90
31074;DHT22;17730;53.552;9.940;2023-05-21T15:16:42;25.10;99.90
31074;DHT22;17730;53.552;9.940;2023-05-21T15:19:07;25.10;99.90
31074;DHT22;17730;53.552;9.940;2023-05-21T15:21:33;25.00;99.90
31074;DHT22;17730;53.552;9.940;2023-05-21T15:23:59;24.90;99.90
31074;DHT22;17730;53.552;9.940;2023-05-21T15:26:24;24.90;99.90
31074;DHT22;17730;53.552;9.940;2023-05-21T15:28:51;24.80;99.90
31074;DHT22;17730;53.552;9.940;2023-05-21T15:31:17;24.70;99.90
31074;DHT22;17730;53.552;9.940;2023-05-21T15:33:42;24.90;99.90
31074;DHT22;17730;53.552;9.940;2023-05-21T15:36:08;24.90;99.90
31074;DHT22;17730;53.552;9.940;2023-05-21T15:38:33;24.90;99.90
31074;DHT22;17730;53.552;9.940;2023-05-21T15:40:59;24.90;99.90
31074;DHT22;17730;53.552;9.940;2023-05-21T15:43:24;24.80;99.90
31074;DHT22;17730;53.552;9.940;2023-05-21T15:45:50;24.70;99.90